createdAt,value
2023-04-30T00:00:14.747Z,74.32
2023-04-30T00:05:16.573Z,75.37
2023-04-30T00:10:20.236Z,75.26
2023-04-30T00:15:21.822Z,75.81
2023-04-30T00:20:23.420Z,76.45
2023-04-30T00:25:25.062Z,77.08
2023-04-30T00:30:26.704Z,77.49
2023-04-30T00:35:28.365Z,77.06
2023-04-30T00:40:30.265Z,77.89
2023-04-30T00:45:31.988Z,77.62
2023-04-30T00:50:36.517Z,78.42
2023-04-30T00:55:40.614Z,78.12
2023-04-30T01:00:47.097Z,78.71
2023-04-30T01:05:51.428Z,78.04
2023-04-30T01:11:07.302Z,78.96
2023-04-30T01:16:21.989Z,79.49
2023-04-30T01:21:24.489Z,79.35
2023-04-30T01:27:15.693Z,79.70
2023-04-30T01:32:17.340Z,79.13
2023-04-30T01:37:46.248Z,79.35
2023-04-30T01:43:12.146Z,79.61
2023-04-30T01:48:44.828Z,80.09
2023-04-30T01:53:47.196Z,80.94
2023-04-30T01:58:53.675Z,81.66
2023-04-30T02:03:55.492Z,81.76
2023-04-30T02:09:06.216Z,81.85
2023-04-30T02:14:08.055Z,81.65
2023-04-30T02:19:11.232Z,81.90
2023-04-30T02:24:12.940Z,81.80
2023-04-30T02:29:14.552Z,82.38
2023-04-30T02:34:16.143Z,82.63
2023-04-30T02:39:18.148Z,81.88
2023-04-30T02:44:20.019Z,81.91
2023-04-30T02:49:21.724Z,82.61
2023-04-30T02:54:23.409Z,83.11
2023-04-30T02:59:25.148Z,82.90
2023-04-30T03:04:26.772Z,82.90
2023-04-30T03:09:32.391Z,83.14
2023-04-30T03:14:34.056Z,83.51
2023-04-30T03:19:35.824Z,83.73
2023-04-30T03:24:38.334Z,83.89
2023-04-30T03:29:39.986Z,83.65
2023-04-30T03:34:41.599Z,84.04
2023-04-30T03:39:43.251Z,83.90
2023-04-30T03:44:44.937Z,84.35
2023-04-30T03:49:55.336Z,83.89
2023-04-30T03:54:57.923Z,84.06
2023-04-30T03:59:59.866Z,83.69
2023-04-30T04:05:02.199Z,83.98
2023-04-30T04:10:04.052Z,84.18
2023-04-30T04:15:07.536Z,84.68
2023-04-30T04:20:13.811Z,84.45
2023-04-30T04:25:16.038Z,85.46
2023-04-30T04:30:19.670Z,84.90
2023-04-30T04:35:22.829Z,84.99
2023-04-30T04:40:25.026Z,85.65
2023-04-30T04:45:26.862Z,85.54
2023-04-30T04:50:28.668Z,85.94
2023-04-30T04:55:30.307Z,86.18
2023-04-30T05:00:33.837Z,86.48
2023-04-30T05:05:35.899Z,85.80
2023-04-30T05:10:37.834Z,85.94
2023-04-30T05:15:39.534Z,87.07
2023-04-30T05:20:43.883Z,88.20
2023-04-30T05:25:45.657Z,88.94
2023-04-30T05:30:50.066Z,89.25
2023-04-30T05:35:51.731Z,88.81
2023-04-30T05:40:53.426Z,89.09
2023-04-30T05:45:55.195Z,89.35
2023-04-30T05:50:56.920Z,88.63
2023-04-30T05:55:58.777Z,88.23
2023-04-30T06:01:00.475Z,87.63
2023-04-30T06:06:02.168Z,88.01
2023-04-30T06:11:05.188Z,87.41
2023-04-30T06:16:08.393Z,88.59
2023-04-30T06:21:10.452Z,88.79
2023-04-30T06:26:15.047Z,88.72
2023-04-30T06:31:16.828Z,88.04
2023-04-30T06:36:21.487Z,88.03
2023-04-30T06:41:23.157Z,88.23
2023-04-30T06:46:24.849Z,87.30
2023-04-30T06:51:26.697Z,86.57
2023-04-30T06:56:28.294Z,86.65
2023-04-30T07:01:32.223Z,85.79
2023-04-30T07:06:34.089Z,85.50
2023-04-30T07:11:36.104Z,84.86
2023-04-30T07:16:37.862Z,81.96
2023-04-30T07:21:39.478Z,81.83
2023-04-30T07:26:42.439Z,81.30
2023-04-30T07:31:44.408Z,80.01
2023-04-30T07:36:49.661Z,78.56
2023-04-30T07:41:52.369Z,78.79
2023-04-30T07:46:54.032Z,76.27
2023-04-30T07:51:56.253Z,76.91
2023-04-30T07:56:57.903Z,74.41
2023-04-30T08:02:00.085Z,71.69
2023-04-30T08:07:02.423Z,71.50
2023-04-30T08:12:05.177Z,71.15
2023-04-30T08:17:06.949Z,70.18
2023-04-30T08:22:08.733Z,69.24
2023-04-30T08:27:10.306Z,67.41
2023-04-30T08:32:12.205Z,66.67
2023-04-30T08:37:17.197Z,66.44
2023-04-30T08:42:26.165Z,65.95
2023-04-30T08:47:28.341Z,64.09
2023-04-30T08:52:34.008Z,63.36
2023-04-30T08:57:37.079Z,63.09
2023-04-30T09:02:42.173Z,61.00
2023-04-30T09:08:01.195Z,61.52
2023-04-30T09:13:09.475Z,61.08
2023-04-30T09:18:19.765Z,60.11
2023-04-30T09:23:21.710Z,58.53
2023-04-30T09:28:26.591Z,58.17
2023-04-30T09:33:28.448Z,57.73
2023-04-30T09:38:32.153Z,57.02
2023-04-30T09:43:33.952Z,56.89
2023-04-30T09:48:35.683Z,55.65
2023-04-30T09:53:42.966Z,55.03
2023-04-30T09:58:50.220Z,53.98
2023-04-30T10:03:54.311Z,54.63
2023-04-30T10:08:57.753Z,54.95
2023-04-30T10:14:11.948Z,53.27
2023-04-30T10:19:29.733Z,52.46
2023-04-30T10:24:31.605Z,51.89
2023-04-30T10:29:33.803Z,50.83
2023-04-30T10:34:47.061Z,51.30
2023-04-30T10:39:52.447Z,50.64
2023-04-30T10:44:54.314Z,49.99
2023-04-30T10:50:08.806Z,50.32
2023-04-30T10:55:10.758Z,49.50
2023-04-30T11:00:14.393Z,48.44
2023-04-30T11:05:20.408Z,48.38
2023-04-30T11:10:23.916Z,49.13
2023-04-30T11:15:27.206Z,46.65
2023-04-30T11:20:29.066Z,46.37
2023-04-30T11:25:39.828Z,47.31
2023-04-30T11:30:50.721Z,47.15
2023-04-30T11:35:53.539Z,45.19
2023-04-30T11:40:56.347Z,44.33
2023-04-30T11:46:09.339Z,45.11
2023-04-30T11:51:20.356Z,45.28
2023-04-30T11:56:25.731Z,45.00
2023-04-30T12:01:28.622Z,43.81
2023-04-30T12:06:31.623Z,44.07
2023-04-30T12:11:34.771Z,43.73
2023-04-30T12:16:52.396Z,43.05
2023-04-30T12:21:55.296Z,42.21
2023-04-30T12:27:00.250Z,41.92
2023-04-30T12:32:04.031Z,43.29
2023-04-30T12:37:05.798Z,42.90
2023-04-30T12:42:10.642Z,44.38
2023-04-30T12:47:13.945Z,44.00
2023-04-30T12:52:15.941Z,42.28
2023-04-30T12:57:20.116Z,43.76
2023-04-30T13:02:27.215Z,41.92
2023-04-30T13:07:38.634Z,42.33
2023-04-30T13:12:40.310Z,42.74
2023-04-30T13:17:42.074Z,42.84
2023-04-30T13:22:44.697Z,42.16
2023-04-30T13:27:46.463Z,44.12
2023-04-30T13:32:48.565Z,43.31
2023-04-30T13:37:52.694Z,43.69
2023-04-30T13:42:54.430Z,41.95
2023-04-30T13:47:56.483Z,41.89
2023-04-30T13:52:59.473Z,44.20
2023-04-30T13:58:01.271Z,43.62
2023-04-30T14:03:04.028Z,43.89
2023-04-30T14:08:07.394Z,45.05
2023-04-30T14:13:09.368Z,44.61
2023-04-30T14:18:11.274Z,44.29
2023-04-30T14:23:13.491Z,45.08
2023-04-30T14:28:15.269Z,44.89
2023-04-30T14:33:17.330Z,42.53
2023-04-30T14:38:26.815Z,42.84
2023-04-30T14:43:28.650Z,42.79
2023-04-30T14:48:30.544Z,41.56
2023-04-30T14:53:33.203Z,40.44
2023-04-30T14:58:35.037Z,40.24
2023-04-30T15:03:36.818Z,41.30
2023-04-30T15:08:38.818Z,40.62
2023-04-30T15:13:40.657Z,39.45
2023-04-30T15:18:43.161Z,40.06
2023-04-30T15:23:45.895Z,39.80
2023-04-30T15:28:49.191Z,40.51
2023-04-30T15:33:51.427Z,40.47
2023-04-30T15:38:53.200Z,40.97
2023-04-30T15:43:54.930Z,41.08
2023-04-30T15:48:57.126Z,41.02
2023-04-30T15:53:58.845Z,39.98
2023-04-30T15:59:00.726Z,40.47
2023-04-30T16:04:04.443Z,42.56
2023-04-30T16:09:07.443Z,42.11
2023-04-30T16:14:09.405Z,42.09
2023-04-30T16:19:12.467Z,43.66
2023-04-30T16:24:16.382Z,44.95
2023-04-30T16:29:19.746Z,44.05
2023-04-30T16:34:21.649Z,43.70
2023-04-30T16:39:23.440Z,44.45
2023-04-30T16:44:25.182Z,45.65
2023-04-30T16:49:27.066Z,45.46
2023-04-30T16:54:29.544Z,46.20
2023-04-30T16:59:31.277Z,46.31
2023-04-30T17:04:33.062Z,46.85
2023-04-30T17:09:36.166Z,47.70
2023-04-30T17:14:37.930Z,48.55
2023-04-30T17:19:39.685Z,48.36
2023-04-30T17:24:41.352Z,48.11
2023-04-30T17:29:43.241Z,49.32
2023-04-30T17:34:48.194Z,50.01
2023-04-30T17:39:50.064Z,50.72
2023-04-30T17:44:51.767Z,51.32
2023-04-30T17:49:53.864Z,51.17
2023-04-30T17:54:57.012Z,52.21
2023-04-30T17:59:59.095Z,52.28
2023-04-30T18:05:01.100Z,52.57
2023-04-30T18:10:03.305Z,52.70
2023-04-30T18:15:08.520Z,53.52
2023-04-30T18:20:12.370Z,53.81
2023-04-30T18:25:19.360Z,54.64
2023-04-30T18:30:21.345Z,55.18
2023-04-30T18:35:23.476Z,55.42
2023-04-30T18:40:25.390Z,55.60
2023-04-30T18:45:27.396Z,55.88
2023-04-30T18:50:29.071Z,56.52
2023-04-30T18:55:30.816Z,56.53
2023-04-30T19:00:32.781Z,56.49
2023-04-30T19:05:35.813Z,57.53
2023-04-30T19:10:52.573Z,57.96
2023-04-30T19:16:04.249Z,57.28
2023-04-30T19:21:06.021Z,57.97
2023-04-30T19:26:07.718Z,58.60
2023-04-30T19:31:09.524Z,59.23
2023-04-30T19:36:11.673Z,59.61
2023-04-30T19:41:13.327Z,60.17
2023-04-30T19:46:19.151Z,60.02
2023-04-30T19:51:21.036Z,60.78
2023-04-30T19:56:23.381Z,60.75
2023-04-30T20:01:28.119Z,61.42
2023-04-30T20:06:30.473Z,61.62
2023-04-30T20:11:33.534Z,62.32
2023-04-30T20:16:35.255Z,62.92
2023-04-30T20:21:37.010Z,63.70
2023-04-30T20:26:38.686Z,63.81
2023-04-30T20:31:44.239Z,64.62
2023-04-30T20:37:05.555Z,64.80
2023-04-30T20:42:14.206Z,65.72
2023-04-30T20:47:33.934Z,66.02
2023-04-30T20:52:45.084Z,66.37
2023-04-30T20:57:53.412Z,66.80
2023-04-30T21:03:02.326Z,67.41
2023-04-30T21:08:06.204Z,68.38
2023-04-30T21:13:23.525Z,68.62
2023-04-30T21:18:36.133Z,69.44
2023-04-30T21:23:48.187Z,69.51
2023-04-30T21:28:54.785Z,69.95
2023-04-30T21:34:11.861Z,70.07
2023-04-30T21:39:21.102Z,70.96
2023-04-30T21:44:23.173Z,71.12
2023-04-30T21:49:31.679Z,71.12
2023-04-30T21:54:59.405Z,71.45
2023-04-30T22:00:05.004Z,72.19
2023-04-30T22:05:21.275Z,72.72
2023-04-30T22:10:30.900Z,72.36
2023-04-30T22:15:47.233Z,72.80
2023-04-30T22:20:53.297Z,73.73
2023-04-30T22:26:02.298Z,73.67
2023-04-30T22:31:11.723Z,73.76
2023-04-30T22:36:14.990Z,73.65
2023-04-30T22:41:22.367Z,74.01
2023-04-30T22:46:24.135Z,74.20
2023-04-30T22:51:27.043Z,74.13
2023-04-30T22:56:28.700Z,74.44
2023-04-30T23:01:30.437Z,74.43
2023-04-30T23:06:32.532Z,75.17
2023-04-30T23:11:34.232Z,75.30
2023-04-30T23:16:40.034Z,75.30
2023-04-30T23:21:41.913Z,75.95
2023-04-30T23:26:47.376Z,75.92
2023-04-30T23:31:51.021Z,75.88
2023-04-30T23:36:53.681Z,75.38
2023-04-30T23:41:55.324Z,75.85
2023-04-30T23:46:57.692Z,75.99
2023-04-30T23:51:59.342Z,76.45
2023-04-30T23:57:01.057Z,76.66
